4I3 weather

Knox County Airport
Mount Vernon, Ohio, United States

Public forecast

Using degrees Fahrenheit for public forecast. Weather courtesy of forecast.io.

Current aviation weather report (METAR) for Knox County Airport

Retrieved 2019/12/11 21:44 UTC (15 minutes ago):

K4I3 112144Z AUTO 26008KT 7SM -SN SCT008 SCT017 BKN036 M03/M06 A3047 RMK AO2

Closest aviation forecast (TAF) to Knox County Airport

Closest forecast is John Glenn Columbus International Airport, 26.1 nm (48.3 km) SW. Retrieved 2019/12/11 18:36 UTC (3 hours ago):

TAF KCMH 111734Z 1118/1218 25012G20KT P6SM -SN BKN025 OVC060 FM112300 32010KT P6SM SCT025 BKN050 FM120300 07005KT P6SM SKC FM121400 15008KT P6SM BKN250